sensor_id;sensor_type;location;lat;lon;timestamp;P1;durP1;ratioP1;P2;durP2;ratioP2
85218;SDS011;75606;40.152;44.490;2024-03-22T00:02:40;26.13;;;15.02;;
85218;SDS011;75606;40.152;44.490;2024-03-22T00:05:05;36.17;;;20.23;;
85218;SDS011;75606;40.152;44.490;2024-03-22T00:07:31;29.17;;;17.92;;
85218;SDS011;75606;40.152;44.490;2024-03-22T00:09:59;34.08;;;17.65;;
85218;SDS011;75606;40.152;44.490;2024-03-22T00:12:25;25.65;;;15.63;;
85218;SDS011;75606;40.152;44.490;2024-03-22T00:14:50;34.95;;;17.17;;
85218;SDS011;75606;40.152;44.490;2024-03-22T00:17:19;28.05;;;18.23;;
85218;SDS011;75606;40.152;44.490;2024-03-22T00:19:45;30.75;;;18.15;;
85218;SDS011;75606;40.152;44.490;2024-03-22T00:22:11;29.33;;;16.20;;
85218;SDS011;75606;40.152;44.490;2024-03-22T00:24:37;24.77;;;14.57;;
85218;SDS011;75606;40.152;44.490;2024-03-22T00:27:02;29.58;;;17.67;;
85218;SDS011;75606;40.152;44.490;2024-03-22T00:29:28;28.73;;;17.02;;
85218;SDS011;75606;40.152;44.490;2024-03-22T00:31:54;31.00;;;16.75;;
85218;SDS011;75606;40.152;44.490;2024-03-22T00:34:20;26.67;;;16.45;;
85218;SDS011;75606;40.152;44.490;2024-03-22T00:36:45;33.80;;;18.50;;
85218;SDS011;75606;40.152;44.490;2024-03-22T00:39:11;27.67;;;17.00;;
85218;SDS011;75606;40.152;44.490;2024-03-22T00:41:39;30.45;;;16.90;;
85218;SDS011;75606;40.152;44.490;2024-03-22T00:44:05;31.10;;;16.77;;
85218;SDS011;75606;40.152;44.490;2024-03-22T00:46:30;26.70;;;15.82;;
85218;SDS011;75606;40.152;44.490;2024-03-22T00:48:56;30.27;;;15.25;;
85218;SDS011;75606;40.152;44.490;2024-03-22T00:51:23;30.98;;;16.10;;
85218;SDS011;75606;40.152;44.490;2024-03-22T00:53:50;30.80;;;17.17;;
85218;SDS011;75606;40.152;44.490;2024-03-22T00:56:15;28.40;;;16.77;;
85218;SDS011;75606;40.152;44.490;2024-03-22T00:58:41;30.92;;;17.75;;
85218;SDS011;75606;40.152;44.490;2024-03-22T01:01:07;27.13;;;15.98;;
85218;SDS011;75606;40.152;44.490;2024-03-22T01:03:32;30.27;;;16.60;;
85218;SDS011;75606;40.152;44.490;2024-03-22T01:05:58;26.00;;;15.52;;
85218;SDS011;75606;40.152;44.490;2024-03-22T01:08:23;29.92;;;17.17;;
85218;SDS011;75606;40.152;44.490;2024-03-22T01:10:49;28.75;;;14.75;;
85218;SDS011;75606;40.152;44.490;2024-03-22T01:13:16;27.77;;;16.02;;
85218;SDS011;75606;40.152;44.490;2024-03-22T01:15:42;26.13;;;16.23;;
85218;SDS011;75606;40.152;44.490;2024-03-22T01:18:08;30.15;;;16.52;;
85218;SDS011;75606;40.152;44.490;2024-03-22T01:20:34;29.75;;;16.63;;
85218;SDS011;75606;40.152;44.490;2024-03-22T01:23:00;30.48;;;18.67;;
85218;SDS011;75606;40.152;44.490;2024-03-22T01:25:26;25.38;;;15.57;;
85218;SDS011;75606;40.152;44.490;2024-03-22T01:27:53;30.35;;;16.30;;
85218;SDS011;75606;40.152;44.490;2024-03-22T01:30:18;23.95;;;14.45;;
85218;SDS011;75606;40.152;44.490;2024-03-22T01:32:44;24.10;;;14.23;;
85218;SDS011;75606;40.152;44.490;2024-03-22T01:35:09;22.30;;;14.48;;
85218;SDS011;75606;40.152;44.490;2024-03-22T01:37:35;17.85;;;12.57;;
85218;SDS011;75606;40.152;44.490;2024-03-22T01:40:01;19.08;;;12.00;;
85218;SDS011;75606;40.152;44.490;2024-03-22T01:42:27;20.20;;;10.95;;
85218;SDS011;75606;40.152;44.490;2024-03-22T01:44:53;19.55;;;10.70;;
85218;SDS011;75606;40.152;44.490;2024-03-22T01:47:19;19.17;;;11.75;;
85218;SDS011;75606;40.152;44.490;2024-03-22T01:49:44;14.90;;;9.25;;
85218;SDS011;75606;40.152;44.490;2024-03-22T01:52:10;17.77;;;10.82;;
85218;SDS011;75606;40.152;44.490;2024-03-22T01:54:36;15.65;;;9.60;;
85218;SDS011;75606;40.152;44.490;2024-03-22T01:57:01;13.02;;;8.98;;
85218;SDS011;75606;40.152;44.490;2024-03-22T01:59:28;17.42;;;10.55;;
85218;SDS011;75606;40.152;44.490;2024-03-22T02:01:54;14.98;;;9.00;;
85218;SDS011;75606;40.152;44.490;2024-03-22T02:04:20;19.13;;;10.00;;
85218;SDS011;75606;40.152;44.490;2024-03-22T02:06:45;17.63;;;10.18;;
85218;SDS011;75606;40.152;44.490;2024-03-22T02:09:11;17.38;;;10.95;;
85218;SDS011;75606;40.152;44.490;2024-03-22T02:11:37;18.63;;;10.82;;
85218;SDS011;75606;40.152;44.490;2024-03-22T02:14:04;17.17;;;9.93;;
85218;SDS011;75606;40.152;44.490;2024-03-22T02:16:30;17.00;;;10.00;;
85218;SDS011;75606;40.152;44.490;2024-03-22T02:18:56;17.48;;;10.02;;
85218;SDS011;75606;40.152;44.490;2024-03-22T02:21:21;14.38;;;9.20;;
85218;SDS011;75606;40.152;44.490;2024-03-22T02:23:47;14.48;;;9.38;;
85218;SDS011;75606;40.152;44.490;2024-03-22T02:26:13;18.23;;;10.98;;
85218;SDS011;75606;40.152;44.490;2024-03-22T02:28:38;15.38;;;9.45;;
85218;SDS011;75606;40.152;44.490;2024-03-22T02:31:04;12.55;;;7.82;;
85218;SDS011;75606;40.152;44.490;2024-03-22T02:33:30;13.98;;;8.10;;
85218;SDS011;75606;40.152;44.490;2024-03-22T02:35:56;13.27;;;7.85;;
85218;SDS011;75606;40.152;44.490;2024-03-22T02:38:24;14.18;;;7.55;;
85218;SDS011;75606;40.152;44.490;2024-03-22T02:40:51;12.98;;;8.23;;
85218;SDS011;75606;40.152;44.490;2024-03-22T02:43:17;11.07;;;6.75;;
85218;SDS011;75606;40.152;44.490;2024-03-22T02:45:44;10.27;;;6.80;;
85218;SDS011;75606;40.152;44.490;2024-03-22T02:48:10;13.25;;;8.80;;
85218;SDS011;75606;40.152;44.490;2024-03-22T02:50:36;12.80;;;7.22;;
85218;SDS011;75606;40.152;44.490;2024-03-22T02:53:04;15.32;;;9.25;;
85218;SDS011;75606;40.152;44.490;2024-03-22T02:55:30;13.13;;;7.63;;
85218;SDS011;75606;40.152;44.490;2024-03-22T02:58:01;15.18;;;8.55;;
85218;SDS011;75606;40.152;44.490;2024-03-22T03:00:29;17.50;;;9.57;;
85218;SDS011;75606;40.152;44.490;2024-03-22T03:02:55;12.85;;;8.30;;
85218;SDS011;75606;40.152;44.490;2024-03-22T03:05:20;12.43;;;8.10;;
85218;SDS011;75606;40.152;44.490;2024-03-22T03:07:48;15.57;;;7.88;;
85218;SDS011;75606;40.152;44.490;2024-03-22T03:10:15;19.60;;;10.00;;
85218;SDS011;75606;40.152;44.490;2024-03-22T03:12:41;14.98;;;9.25;;
85218;SDS011;75606;40.152;44.490;2024-03-22T03:15:07;20.50;;;9.43;;
85218;SDS011;75606;40.152;44.490;2024-03-22T03:17:33;13.50;;;8.73;;
85218;SDS011;75606;40.152;44.490;2024-03-22T03:19:58;13.45;;;8.15;;
85218;SDS011;75606;40.152;44.490;2024-03-22T03:22:24;14.32;;;8.32;;
85218;SDS011;75606;40.152;44.490;2024-03-22T03:24:49;16.38;;;9.50;;
85218;SDS011;75606;40.152;44.490;2024-03-22T03:27:15;18.50;;;9.25;;
85218;SDS011;75606;40.152;44.490;2024-03-22T03:29:41;17.75;;;8.95;;
85218;SDS011;75606;40.152;44.490;2024-03-22T03:32:06;15.18;;;10.25;;
85218;SDS011;75606;40.152;44.490;2024-03-22T03:34:32;14.45;;;8.27;;
85218;SDS011;75606;40.152;44.490;2024-03-22T03:36:58;14.77;;;9.43;;
85218;SDS011;75606;40.152;44.490;2024-03-22T03:39:26;14.80;;;10.23;;
85218;SDS011;75606;40.152;44.490;2024-03-22T03:41:54;14.27;;;8.60;;
85218;SDS011;75606;40.152;44.490;2024-03-22T03:44:20;14.18;;;8.52;;
85218;SDS011;75606;40.152;44.490;2024-03-22T03:46:46;15.52;;;8.85;;
85218;SDS011;75606;40.152;44.490;2024-03-22T03:49:11;19.05;;;9.90;;
85218;SDS011;75606;40.152;44.490;2024-03-22T03:51:37;15.82;;;9.27;;
85218;SDS011;75606;40.152;44.490;2024-03-22T03:54:02;16.27;;;9.32;;
85218;SDS011;75606;40.152;44.490;2024-03-22T03:56:29;13.90;;;8.63;;
85218;SDS011;75606;40.152;44.490;2024-03-22T03:58:55;18.00;;;9.80;;
85218;SDS011;75606;40.152;44.490;2024-03-22T04:01:21;17.23;;;9.90;;
85218;SDS011;75606;40.152;44.490;2024-03-22T04:03:48;14.98;;;9.20;;
85218;SDS011;75606;40.152;44.490;2024-03-22T04:06:14;14.65;;;9.38;;
85218;SDS011;75606;40.152;44.490;2024-03-22T04:08:39;17.95;;;10.20;;
85218;SDS011;75606;40.152;44.490;2024-03-22T04:11:05;17.58;;;10.50;;
85218;SDS011;75606;40.152;44.490;2024-03-22T04:13:31;17.45;;;10.95;;
85218;SDS011;75606;40.152;44.490;2024-03-22T04:15:58;12.15;;;7.47;;
85218;SDS011;75606;40.152;44.490;2024-03-22T04:18:24;20.20;;;10.07;;
85218;SDS011;75606;40.152;44.490;2024-03-22T04:20:56;16.08;;;10.18;;
85218;SDS011;75606;40.152;44.490;2024-03-22T04:23:23;18.00;;;10.30;;
85218;SDS011;75606;40.152;44.490;2024-03-22T04:25:55;16.27;;;9.35;;
85218;SDS011;75606;40.152;44.490;2024-03-22T04:28:28;20.83;;;11.48;;
85218;SDS011;75606;40.152;44.490;2024-03-22T04:31:01;18.83;;;10.38;;
85218;SDS011;75606;40.152;44.490;2024-03-22T04:33:33;19.95;;;10.77;;
85218;SDS011;75606;40.152;44.490;2024-03-22T04:36:00;17.38;;;10.32;;
85218;SDS011;75606;40.152;44.490;2024-03-22T04:38:26;24.15;;;13.15;;
85218;SDS011;75606;40.152;44.490;2024-03-22T04:40:52;25.67;;;14.35;;
85218;SDS011;75606;40.152;44.490;2024-03-22T04:43:19;17.42;;;11.40;;
85218;SDS011;75606;40.152;44.490;2024-03-22T04:45:46;24.48;;;12.07;;
85218;SDS011;75606;40.152;44.490;2024-03-22T04:48:20;25.63;;;13.13;;
85218;SDS011;75606;40.152;44.490;2024-03-22T04:50:47;17.42;;;10.55;;
85218;SDS011;75606;40.152;44.490;2024-03-22T04:53:16;25.33;;;13.05;;
85218;SDS011;75606;40.152;44.490;2024-03-22T04:55:45;23.38;;;12.13;;
85218;SDS011;75606;40.152;44.490;2024-03-22T04:58:12;18.58;;;9.90;;
85218;SDS011;75606;40.152;44.490;2024-03-22T05:00:44;20.40;;;10.60;;
85218;SDS011;75606;40.152;44.490;2024-03-22T05:03:12;21.45;;;11.27;;
85218;SDS011;75606;40.152;44.490;2024-03-22T05:05:38;16.85;;;10.05;;
85218;SDS011;75606;40.152;44.490;2024-03-22T05:08:04;18.40;;;10.52;;
85218;SDS011;75606;40.152;44.490;2024-03-22T05:10:31;24.50;;;13.38;;
85218;SDS011;75606;40.152;44.490;2024-03-22T05:12:57;21.85;;;11.60;;
85218;SDS011;75606;40.152;44.490;2024-03-22T05:15:25;21.23;;;10.60;;
85218;SDS011;75606;40.152;44.490;2024-03-22T05:17:51;17.25;;;10.63;;
85218;SDS011;75606;40.152;44.490;2024-03-22T05:20:18;19.80;;;9.93;;
85218;SDS011;75606;40.152;44.490;2024-03-22T05:22:44;16.75;;;9.95;;
85218;SDS011;75606;40.152;44.490;2024-03-22T05:25:12;20.83;;;9.70;;
85218;SDS011;75606;40.152;44.490;2024-03-22T05:27:40;23.17;;;11.50;;
85218;SDS011;75606;40.152;44.490;2024-03-22T05:30:07;19.95;;;9.75;;
85218;SDS011;75606;40.152;44.490;2024-03-22T05:32:33;25.77;;;12.38;;
85218;SDS011;75606;40.152;44.490;2024-03-22T05:34:59;21.20;;;10.50;;
85218;SDS011;75606;40.152;44.490;2024-03-22T05:37:24;14.18;;;9.35;;
85218;SDS011;75606;40.152;44.490;2024-03-22T05:39:50;20.52;;;10.18;;
85218;SDS011;75606;40.152;44.490;2024-03-22T05:42:16;19.35;;;9.63;;
85218;SDS011;75606;40.152;44.490;2024-03-22T05:44:41;21.80;;;10.80;;
85218;SDS011;75606;40.152;44.490;2024-03-22T05:47:08;21.45;;;11.30;;
85218;SDS011;75606;40.152;44.490;2024-03-22T05:49:33;18.92;;;9.52;;
85218;SDS011;75606;40.152;44.490;2024-03-22T05:51:59;15.15;;;9.57;;
85218;SDS011;75606;40.152;44.490;2024-03-22T05:54:28;13.27;;;8.07;;
85218;SDS011;75606;40.152;44.490;2024-03-22T05:56:53;14.43;;;9.00;;
85218;SDS011;75606;40.152;44.490;2024-03-22T05:59:20;15.70;;;10.60;;
85218;SDS011;75606;40.152;44.490;2024-03-22T06:01:47;16.45;;;8.73;;
85218;SDS011;75606;40.152;44.490;2024-03-22T06:04:13;15.88;;;9.73;;
85218;SDS011;75606;40.152;44.490;2024-03-22T06:06:40;15.02;;;9.43;;
85218;SDS011;75606;40.152;44.490;2024-03-22T06:09:06;18.58;;;10.35;;
85218;SDS011;75606;40.152;44.490;2024-03-22T06:11:36;24.60;;;11.52;;
85218;SDS011;75606;40.152;44.490;2024-03-22T06:14:02;24.45;;;12.50;;
85218;SDS011;75606;40.152;44.490;2024-03-22T06:16:28;28.40;;;15.48;;
85218;SDS011;75606;40.152;44.490;2024-03-22T06:18:53;26.20;;;14.43;;
85218;SDS011;75606;40.152;44.490;2024-03-22T06:21:19;35.55;;;18.92;;
85218;SDS011;75606;40.152;44.490;2024-03-22T06:23:50;35.53;;;16.90;;
85218;SDS011;75606;40.152;44.490;2024-03-22T06:26:16;29.95;;;17.70;;
85218;SDS011;75606;40.152;44.490;2024-03-22T06:28:42;23.65;;;13.65;;
85218;SDS011;75606;40.152;44.490;2024-03-22T06:31:07;33.33;;;16.90;;
85218;SDS011;75606;40.152;44.490;2024-03-22T06:33:33;24.77;;;14.30;;
85218;SDS011;75606;40.152;44.490;2024-03-22T06:35:59;25.13;;;15.10;;
85218;SDS011;75606;40.152;44.490;2024-03-22T06:38:25;30.65;;;16.70;;
85218;SDS011;75606;40.152;44.490;2024-03-22T06:40:51;31.10;;;16.33;;
85218;SDS011;75606;40.152;44.490;2024-03-22T06:43:16;27.63;;;14.52;;
85218;SDS011;75606;40.152;44.490;2024-03-22T06:45:42;26.38;;;15.73;;
85218;SDS011;75606;40.152;44.490;2024-03-22T06:48:08;27.88;;;14.82;;
85218;SDS011;75606;40.152;44.490;2024-03-22T06:50:33;25.85;;;16.73;;
85218;SDS011;75606;40.152;44.490;2024-03-22T06:52:59;35.17;;;19.15;;
85218;SDS011;75606;40.152;44.490;2024-03-22T06:55:25;30.45;;;17.77;;
85218;SDS011;75606;40.152;44.490;2024-03-22T06:57:51;32.85;;;15.63;;
85218;SDS011;75606;40.152;44.490;2024-03-22T07:00:17;27.92;;;15.50;;
85218;SDS011;75606;40.152;44.490;2024-03-22T07:02:43;30.23;;;18.17;;
85218;SDS011;75606;40.152;44.490;2024-03-22T07:05:09;27.75;;;15.02;;
85218;SDS011;75606;40.152;44.490;2024-03-22T07:07:35;23.17;;;14.45;;
85218;SDS011;75606;40.152;44.490;2024-03-22T07:10:02;26.00;;;14.32;;
85218;SDS011;75606;40.152;44.490;2024-03-22T07:12:28;24.55;;;14.13;;
85218;SDS011;75606;40.152;44.490;2024-03-22T07:14:54;24.35;;;13.90;;
85218;SDS011;75606;40.152;44.490;2024-03-22T07:17:21;18.90;;;11.60;;
85218;SDS011;75606;40.152;44.490;2024-03-22T07:19:50;20.25;;;12.50;;
85218;SDS011;75606;40.152;44.490;2024-03-22T07:22:21;18.65;;;10.30;;
85218;SDS011;75606;40.152;44.490;2024-03-22T07:24:47;18.52;;;10.40;;
85218;SDS011;75606;40.152;44.490;2024-03-22T07:27:14;23.58;;;11.27;;
85218;SDS011;75606;40.152;44.490;2024-03-22T07:29:43;18.23;;;9.98;;
85218;SDS011;75606;40.152;44.490;2024-03-22T07:32:09;22.63;;;12.68;;
85218;SDS011;75606;40.152;44.490;2024-03-22T07:34:35;17.65;;;10.77;;
85218;SDS011;75606;40.152;44.490;2024-03-22T07:37:01;21.02;;;10.85;;
85218;SDS011;75606;40.152;44.490;2024-03-22T07:39:26;16.33;;;10.45;;
85218;SDS011;75606;40.152;44.490;2024-03-22T07:41:52;13.20;;;8.43;;
85218;SDS011;75606;40.152;44.490;2024-03-22T07:44:18;14.80;;;9.38;;
85218;SDS011;75606;40.152;44.490;2024-03-22T07:49:18;18.05;;;8.93;;
85218;SDS011;75606;40.152;44.490;2024-03-22T07:51:46;16.20;;;9.65;;
85218;SDS011;75606;40.152;44.490;2024-03-22T07:54:14;10.35;;;6.93;;
85218;SDS011;75606;40.152;44.490;2024-03-22T07:56:40;8.50;;;5.20;;
85218;SDS011;75606;40.152;44.490;2024-03-22T07:59:06;7.38;;;4.50;;
85218;SDS011;75606;40.152;44.490;2024-03-22T08:01:31;13.30;;;6.15;;
85218;SDS011;75606;40.152;44.490;2024-03-22T08:03:57;10.25;;;5.22;;
85218;SDS011;75606;40.152;44.490;2024-03-22T08:06:24;9.07;;;5.30;;
85218;SDS011;75606;40.152;44.490;2024-03-22T08:08:50;10.13;;;5.55;;
85218;SDS011;75606;40.152;44.490;2024-03-22T08:11:16;6.50;;;4.13;;
85218;SDS011;75606;40.152;44.490;2024-03-22T08:13:42;4.95;;;3.08;;
85218;SDS011;75606;40.152;44.490;2024-03-22T08:16:07;13.15;;;7.13;;
85218;SDS011;75606;40.152;44.490;2024-03-22T08:18:35;10.73;;;7.90;;
85218;SDS011;75606;40.152;44.490;2024-03-22T08:21:01;8.98;;;4.65;;
85218;SDS011;75606;40.152;44.490;2024-03-22T08:23:29;6.57;;;4.50;;
85218;SDS011;75606;40.152;44.490;2024-03-22T08:25:55;6.45;;;4.30;;
85218;SDS011;75606;40.152;44.490;2024-03-22T08:28:22;7.68;;;5.78;;
85218;SDS011;75606;40.152;44.490;2024-03-22T08:30:48;10.80;;;6.20;;
85218;SDS011;75606;40.152;44.490;2024-03-22T08:33:14;10.50;;;6.80;;
85218;SDS011;75606;40.152;44.490;2024-03-22T08:35:40;14.63;;;8.73;;
85218;SDS011;75606;40.152;44.490;2024-03-22T08:38:06;13.57;;;6.85;;
85218;SDS011;75606;40.152;44.490;2024-03-22T08:40:38;7.80;;;4.13;;
85218;SDS011;75606;40.152;44.490;2024-03-22T08:43:05;6.32;;;4.20;;
85218;SDS011;75606;40.152;44.490;2024-03-22T08:45:34;10.73;;;5.63;;
85218;SDS011;75606;40.152;44.490;2024-03-22T08:47:59;9.88;;;5.13;;
85218;SDS011;75606;40.152;44.490;2024-03-22T08:50:25;10.57;;;5.65;;
85218;SDS011;75606;40.152;44.490;2024-03-22T08:52:51;16.27;;;9.02;;
85218;SDS011;75606;40.152;44.490;2024-03-22T08:55:17;15.25;;;7.10;;
85218;SDS011;75606;40.152;44.490;2024-03-22T08:57:42;11.52;;;6.10;;
85218;SDS011;75606;40.152;44.490;2024-03-22T09:00:08;14.15;;;7.97;;
85218;SDS011;75606;40.152;44.490;2024-03-22T09:02:36;18.15;;;10.35;;
85218;SDS011;75606;40.152;44.490;2024-03-22T09:05:03;14.57;;;6.97;;
85218;SDS011;75606;40.152;44.490;2024-03-22T09:07:29;13.85;;;7.90;;
85218;SDS011;75606;40.152;44.490;2024-03-22T09:09:55;9.60;;;5.40;;
85218;SDS011;75606;40.152;44.490;2024-03-22T09:12:21;12.90;;;5.10;;
85218;SDS011;75606;40.152;44.490;2024-03-22T09:14:46;8.15;;;5.18;;
85218;SDS011;75606;40.152;44.490;2024-03-22T09:17:12;9.65;;;5.57;;
85218;SDS011;75606;40.152;44.490;2024-03-22T09:19:38;10.18;;;5.25;;
85218;SDS011;75606;40.152;44.490;2024-03-22T09:22:03;9.02;;;4.82;;
85218;SDS011;75606;40.152;44.490;2024-03-22T09:24:29;8.32;;;5.30;;
85218;SDS011;75606;40.152;44.490;2024-03-22T09:26:55;10.48;;;5.65;;
85218;SDS011;75606;40.152;44.490;2024-03-22T09:29:20;11.07;;;5.57;;
85218;SDS011;75606;40.152;44.490;2024-03-22T09:31:46;10.55;;;5.10;;
85218;SDS011;75606;40.152;44.490;2024-03-22T09:34:12;5.55;;;3.80;;
85218;SDS011;75606;40.152;44.490;2024-03-22T09:39:06;6.82;;;4.15;;
85218;SDS011;75606;40.152;44.490;2024-03-22T09:41:33;7.65;;;4.30;;
85218;SDS011;75606;40.152;44.490;2024-03-22T09:44:06;9.45;;;4.70;;
85218;SDS011;75606;40.152;44.490;2024-03-22T09:46:32;8.35;;;5.10;;
85218;SDS011;75606;40.152;44.490;2024-03-22T09:48:59;9.27;;;5.60;;
85218;SDS011;75606;40.152;44.490;2024-03-22T09:51:27;11.30;;;5.90;;
85218;SDS011;75606;40.152;44.490;2024-03-22T09:53:54;11.13;;;6.43;;
85218;SDS011;75606;40.152;44.490;2024-03-22T09:56:20;11.55;;;5.90;;
85218;SDS011;75606;40.152;44.490;2024-03-22T09:58:46;12.05;;;6.18;;
85218;SDS011;75606;40.152;44.490;2024-03-22T10:01:12;9.10;;;4.95;;
85218;SDS011;75606;40.152;44.490;2024-03-22T10:03:38;9.15;;;5.13;;
85218;SDS011;75606;40.152;44.490;2024-03-22T10:06:05;7.78;;;4.63;;
85218;SDS011;75606;40.152;44.490;2024-03-22T10:08:33;9.38;;;4.68;;
85218;SDS011;75606;40.152;44.490;2024-03-22T10:11:01;7.82;;;4.80;;
85218;SDS011;75606;40.152;44.490;2024-03-22T10:13:28;11.38;;;5.20;;
85218;SDS011;75606;40.152;44.490;2024-03-22T10:15:56;11.82;;;6.03;;
85218;SDS011;75606;40.152;44.490;2024-03-22T10:18:22;13.05;;;5.50;;
85218;SDS011;75606;40.152;44.490;2024-03-22T10:20:58;11.73;;;5.95;;
85218;SDS011;75606;40.152;44.490;2024-03-22T10:23:25;11.65;;;5.82;;
85218;SDS011;75606;40.152;44.490;2024-03-22T10:25:51;10.30;;;5.45;;
85218;SDS011;75606;40.152;44.490;2024-03-22T10:28:16;11.65;;;5.68;;
85218;SDS011;75606;40.152;44.490;2024-03-22T10:30:43;11.23;;;6.18;;
85218;SDS011;75606;40.152;44.490;2024-03-22T10:33:09;13.65;;;6.35;;
85218;SDS011;75606;40.152;44.490;2024-03-22T10:35:37;15.70;;;7.40;;
85218;SDS011;75606;40.152;44.490;2024-03-22T10:38:03;23.15;;;9.60;;
85218;SDS011;75606;40.152;44.490;2024-03-22T10:40:28;15.18;;;7.95;;
85218;SDS011;75606;40.152;44.490;2024-03-22T10:42:55;15.98;;;7.35;;
85218;SDS011;75606;40.152;44.490;2024-03-22T10:45:22;8.02;;;5.28;;
85218;SDS011;75606;40.152;44.490;2024-03-22T10:47:52;11.45;;;6.75;;
85218;SDS011;75606;40.152;44.490;2024-03-22T10:50:18;10.63;;;5.40;;
85218;SDS011;75606;40.152;44.490;2024-03-22T10:52:51;10.02;;;5.68;;
85218;SDS011;75606;40.152;44.490;2024-03-22T10:55:21;10.43;;;5.32;;
85218;SDS011;75606;40.152;44.490;2024-03-22T10:57:49;12.57;;;6.25;;
85218;SDS011;75606;40.152;44.490;2024-03-22T11:00:16;9.75;;;5.03;;
85218;SDS011;75606;40.152;44.490;2024-03-22T11:02:43;13.20;;;6.55;;
85218;SDS011;75606;40.152;44.490;2024-03-22T11:05:16;14.70;;;6.63;;
85218;SDS011;75606;40.152;44.490;2024-03-22T11:07:43;13.07;;;7.55;;
85218;SDS011;75606;40.152;44.490;2024-03-22T11:10:11;9.73;;;4.93;;
85218;SDS011;75606;40.152;44.490;2024-03-22T11:12:37;9.02;;;4.65;;
85218;SDS011;75606;40.152;44.490;2024-03-22T11:15:06;12.93;;;6.63;;
85218;SDS011;75606;40.152;44.490;2024-03-22T11:17:34;10.50;;;5.70;;
85218;SDS011;75606;40.152;44.490;2024-03-22T11:20:00;17.90;;;7.60;;
85218;SDS011;75606;40.152;44.490;2024-03-22T11:22:25;12.63;;;5.03;;
85218;SDS011;75606;40.152;44.490;2024-03-22T11:24:54;13.27;;;6.13;;
85218;SDS011;75606;40.152;44.490;2024-03-22T11:27:20;12.15;;;6.30;;
85218;SDS011;75606;40.152;44.490;2024-03-22T11:29:47;12.75;;;5.75;;
85218;SDS011;75606;40.152;44.490;2024-03-22T11:34:41;14.07;;;7.43;;
85218;SDS011;75606;40.152;44.490;2024-03-22T11:37:07;15.05;;;7.43;;
85218;SDS011;75606;40.152;44.490;2024-03-22T11:39:38;13.27;;;5.50;;
85218;SDS011;75606;40.152;44.490;2024-03-22T11:42:05;9.50;;;5.32;;
85218;SDS011;75606;40.152;44.490;2024-03-22T11:44:32;10.50;;;5.45;;
85218;SDS011;75606;40.152;44.490;2024-03-22T11:46:59;12.50;;;7.68;;
85218;SDS011;75606;40.152;44.490;2024-03-22T11:49:25;9.70;;;5.57;;
85218;SDS011;75606;40.152;44.490;2024-03-22T11:51:51;19.30;;;7.95;;
85218;SDS011;75606;40.152;44.490;2024-03-22T11:54:20;18.35;;;8.68;;
85218;SDS011;75606;40.152;44.490;2024-03-22T11:59:12;11.38;;;7.32;;
85218;SDS011;75606;40.152;44.490;2024-03-22T12:01:38;9.32;;;6.43;;
85218;SDS011;75606;40.152;44.490;2024-03-22T12:04:04;18.10;;;7.85;;
85218;SDS011;75606;40.152;44.490;2024-03-22T12:06:33;16.33;;;7.97;;
85218;SDS011;75606;40.152;44.490;2024-03-22T12:09:00;10.43;;;6.72;;
85218;SDS011;75606;40.152;44.490;2024-03-22T12:11:25;14.27;;;6.07;;
85218;SDS011;75606;40.152;44.490;2024-03-22T12:13:51;12.75;;;5.75;;
85218;SDS011;75606;40.152;44.490;2024-03-22T12:16:17;8.77;;;5.78;;
85218;SDS011;75606;40.152;44.490;2024-03-22T12:18:43;7.63;;;4.95;;
85218;SDS011;75606;40.152;44.490;2024-03-22T12:21:11;8.52;;;4.60;;
85218;SDS011;75606;40.152;44.490;2024-03-22T12:23:37;10.90;;;5.57;;
85218;SDS011;75606;40.152;44.490;2024-03-22T12:26:03;10.30;;;4.72;;
85218;SDS011;75606;40.152;44.490;2024-03-22T12:28:28;7.43;;;5.18;;
85218;SDS011;75606;40.152;44.490;2024-03-22T12:30:54;9.55;;;5.88;;
85218;SDS011;75606;40.152;44.490;2024-03-22T12:33:20;10.23;;;5.85;;
85218;SDS011;75606;40.152;44.490;2024-03-22T12:35:45;12.13;;;5.68;;
85218;SDS011;75606;40.152;44.490;2024-03-22T12:38:13;10.88;;;6.18;;
85218;SDS011;75606;40.152;44.490;2024-03-22T12:40:39;10.93;;;5.68;;
85218;SDS011;75606;40.152;44.490;2024-03-22T12:43:05;12.07;;;6.50;;
85218;SDS011;75606;40.152;44.490;2024-03-22T12:45:31;10.57;;;6.20;;
85218;SDS011;75606;40.152;44.490;2024-03-22T12:48:00;13.57;;;6.68;;
85218;SDS011;75606;40.152;44.490;2024-03-22T12:50:26;9.20;;;6.00;;
85218;SDS011;75606;40.152;44.490;2024-03-22T12:52:52;10.73;;;7.15;;
85218;SDS011;75606;40.152;44.490;2024-03-22T12:55:17;9.40;;;5.95;;
85218;SDS011;75606;40.152;44.490;2024-03-22T12:57:43;10.73;;;6.57;;
85218;SDS011;75606;40.152;44.490;2024-03-22T13:00:09;11.68;;;6.43;;
85218;SDS011;75606;40.152;44.490;2024-03-22T13:02:41;9.52;;;5.72;;
85218;SDS011;75606;40.152;44.490;2024-03-22T13:05:07;11.40;;;7.45;;
85218;SDS011;75606;40.152;44.490;2024-03-22T13:07:33;11.82;;;7.35;;
85218;SDS011;75606;40.152;44.490;2024-03-22T13:09:59;13.35;;;7.57;;
85218;SDS011;75606;40.152;44.490;2024-03-22T13:12:26;13.00;;;6.80;;
85218;SDS011;75606;40.152;44.490;2024-03-22T13:14:52;14.40;;;7.32;;
85218;SDS011;75606;40.152;44.490;2024-03-22T13:17:20;15.63;;;10.23;;
85218;SDS011;75606;40.152;44.490;2024-03-22T13:19:46;16.52;;;10.30;;
85218;SDS011;75606;40.152;44.490;2024-03-22T13:22:14;15.30;;;9.32;;
85218;SDS011;75606;40.152;44.490;2024-03-22T13:24:43;18.10;;;9.02;;
85218;SDS011;75606;40.152;44.490;2024-03-22T13:27:12;11.23;;;7.65;;
85218;SDS011;75606;40.152;44.490;2024-03-22T13:29:42;14.88;;;8.15;;
85218;SDS011;75606;40.152;44.490;2024-03-22T13:32:07;17.55;;;10.52;;
85218;SDS011;75606;40.152;44.490;2024-03-22T13:34:34;17.65;;;10.70;;
85218;SDS011;75606;40.152;44.490;2024-03-22T13:37:03;16.90;;;12.05;;
85218;SDS011;75606;40.152;44.490;2024-03-22T13:39:29;16.13;;;11.10;;
85218;SDS011;75606;40.152;44.490;2024-03-22T13:41:58;17.00;;;10.65;;
85218;SDS011;75606;40.152;44.490;2024-03-22T13:44:24;15.68;;;12.30;;
85218;SDS011;75606;40.152;44.490;2024-03-22T13:46:52;15.30;;;11.63;;
85218;SDS011;75606;40.152;44.490;2024-03-22T13:49:18;22.13;;;12.73;;
85218;SDS011;75606;40.152;44.490;2024-03-22T13:51:46;25.38;;;18.48;;
85218;SDS011;75606;40.152;44.490;2024-03-22T13:54:12;27.10;;;18.27;;
85218;SDS011;75606;40.152;44.490;2024-03-22T13:56:38;23.48;;;12.25;;
85218;SDS011;75606;40.152;44.490;2024-03-22T13:59:04;15.15;;;9.90;;
85218;SDS011;75606;40.152;44.490;2024-03-22T14:01:31;10.45;;;6.78;;
85218;SDS011;75606;40.152;44.490;2024-03-22T14:03:57;17.25;;;7.07;;
85218;SDS011;75606;40.152;44.490;2024-03-22T14:06:25;15.73;;;5.90;;
85218;SDS011;75606;40.152;44.490;2024-03-22T14:08:52;11.85;;;5.05;;
85218;SDS011;75606;40.152;44.490;2024-03-22T14:11:20;9.30;;;4.32;;
85218;SDS011;75606;40.152;44.490;2024-03-22T14:13:46;9.10;;;4.10;;
85218;SDS011;75606;40.152;44.490;2024-03-22T14:16:11;9.20;;;3.72;;
85218;SDS011;75606;40.152;44.490;2024-03-22T14:18:40;5.38;;;2.70;;
85218;SDS011;75606;40.152;44.490;2024-03-22T14:21:08;5.20;;;2.45;;
85218;SDS011;75606;40.152;44.490;2024-03-22T14:23:34;12.27;;;6.75;;
85218;SDS011;75606;40.152;44.490;2024-03-22T14:26:02;4.90;;;2.67;;